sensor_id;sensor_type;location;lat;lon;timestamp;P1;durP1;ratioP1;P2;durP2;ratioP2
10554;SDS011;5326;51.522;7.388;2023-02-01T00:01:07;30.53;;;11.43;;
10554;SDS011;5326;51.522;7.388;2023-02-01T00:03:34;27.57;;;11.57;;
10554;SDS011;5326;51.522;7.388;2023-02-01T00:06:01;29.90;;;11.90;;
10554;SDS011;5326;51.522;7.388;2023-02-01T00:08:28;33.07;;;12.13;;
10554;SDS011;5326;51.522;7.388;2023-02-01T00:11:01;26.00;;;11.70;;
10554;SDS011;5326;51.522;7.388;2023-02-01T00:13:30;31.47;;;11.33;;
10554;SDS011;5326;51.522;7.388;2023-02-01T00:16:04;22.70;;;10.60;;
10554;SDS011;5326;51.522;7.388;2023-02-01T00:18:33;25.13;;;10.23;;
10554;SDS011;5326;51.522;7.388;2023-02-01T00:21:00;25.13;;;9.67;;
10554;SDS011;5326;51.522;7.388;2023-02-01T00:23:27;25.83;;;9.97;;
10554;SDS011;5326;51.522;7.388;2023-02-01T00:25:54;25.90;;;9.87;;
10554;SDS011;5326;51.522;7.388;2023-02-01T00:28:20;29.10;;;8.60;;
10554;SDS011;5326;51.522;7.388;2023-02-01T00:30:55;21.07;;;8.50;;
10554;SDS011;5326;51.522;7.388;2023-02-01T00:33:22;26.97;;;8.00;;
10554;SDS011;5326;51.522;7.388;2023-02-01T00:35:49;22.33;;;7.63;;
10554;SDS011;5326;51.522;7.388;2023-02-01T00:38:16;17.33;;;6.63;;
10554;SDS011;5326;51.522;7.388;2023-02-01T00:40:42;20.83;;;6.70;;
10554;SDS011;5326;51.522;7.388;2023-02-01T00:43:09;25.70;;;6.77;;
10554;SDS011;5326;51.522;7.388;2023-02-01T00:45:36;25.03;;;6.63;;
10554;SDS011;5326;51.522;7.388;2023-02-01T00:48:03;23.63;;;5.83;;
10554;SDS011;5326;51.522;7.388;2023-02-01T00:50:29;16.23;;;6.30;;
10554;SDS011;5326;51.522;7.388;2023-02-01T00:52:56;18.20;;;5.53;;
10554;SDS011;5326;51.522;7.388;2023-02-01T00:55:23;20.40;;;5.63;;
10554;SDS011;5326;51.522;7.388;2023-02-01T00:57:49;18.07;;;5.33;;
10554;SDS011;5326;51.522;7.388;2023-02-01T01:00:16;16.23;;;5.13;;
10554;SDS011;5326;51.522;7.388;2023-02-01T01:02:43;17.70;;;4.90;;
10554;SDS011;5326;51.522;7.388;2023-02-01T01:05:09;25.57;;;5.50;;
10554;SDS011;5326;51.522;7.388;2023-02-01T01:07:36;20.73;;;4.97;;
10554;SDS011;5326;51.522;7.388;2023-02-01T01:10:03;20.87;;;5.10;;
10554;SDS011;5326;51.522;7.388;2023-02-01T01:12:30;25.10;;;4.70;;
10554;SDS011;5326;51.522;7.388;2023-02-01T01:14:56;20.60;;;5.80;;
10554;SDS011;5326;51.522;7.388;2023-02-01T01:17:23;18.37;;;5.07;;
10554;SDS011;5326;51.522;7.388;2023-02-01T01:19:49;23.53;;;5.00;;
10554;SDS011;5326;51.522;7.388;2023-02-01T01:22:16;17.97;;;4.67;;
10554;SDS011;5326;51.522;7.388;2023-02-01T01:24:44;21.80;;;4.67;;
10554;SDS011;5326;51.522;7.388;2023-02-01T01:27:10;19.07;;;4.53;;
10554;SDS011;5326;51.522;7.388;2023-02-01T01:29:37;17.23;;;5.17;;
10554;SDS011;5326;51.522;7.388;2023-02-01T01:32:04;22.63;;;4.50;;
10554;SDS011;5326;51.522;7.388;2023-02-01T01:34:30;21.37;;;4.67;;
10554;SDS011;5326;51.522;7.388;2023-02-01T01:36:57;17.37;;;4.00;;
10554;SDS011;5326;51.522;7.388;2023-02-01T01:39:24;21.10;;;5.27;;
10554;SDS011;5326;51.522;7.388;2023-02-01T01:41:50;17.80;;;4.53;;
10554;SDS011;5326;51.522;7.388;2023-02-01T01:47:21;21.13;;;5.17;;
10554;SDS011;5326;51.522;7.388;2023-02-01T01:49:48;25.03;;;4.87;;
10554;SDS011;5326;51.522;7.388;2023-02-01T01:52:15;16.57;;;4.60;;
10554;SDS011;5326;51.522;7.388;2023-02-01T01:54:47;17.27;;;4.27;;
10554;SDS011;5326;51.522;7.388;2023-02-01T01:57:19;17.30;;;4.70;;
10554;SDS011;5326;51.522;7.388;2023-02-01T01:59:53;18.83;;;4.70;;
10554;SDS011;5326;51.522;7.388;2023-02-01T02:02:29;19.77;;;5.80;;
10554;SDS011;5326;51.522;7.388;2023-02-01T02:04:56;23.13;;;5.10;;
10554;SDS011;5326;51.522;7.388;2023-02-01T02:07:25;17.47;;;4.27;;
10554;SDS011;5326;51.522;7.388;2023-02-01T02:09:54;17.90;;;4.77;;
10554;SDS011;5326;51.522;7.388;2023-02-01T02:12:26;18.83;;;4.77;;
10554;SDS011;5326;51.522;7.388;2023-02-01T02:14:53;21.77;;;5.17;;
10554;SDS011;5326;51.522;7.388;2023-02-01T02:34:11;21.63;;;4.97;;
10554;SDS011;5326;51.522;7.388;2023-02-01T02:45:09;18.13;;;5.03;;
10554;SDS011;5326;51.522;7.388;2023-02-01T02:54:13;16.50;;;4.60;;
10554;SDS011;5326;51.522;7.388;2023-02-01T02:57:04;24.37;;;5.77;;
10554;SDS011;5326;51.522;7.388;2023-02-01T02:59:52;15.23;;;5.03;;
10554;SDS011;5326;51.522;7.388;2023-02-01T03:02:37;18.47;;;4.70;;
10554;SDS011;5326;51.522;7.388;2023-02-01T03:05:22;19.97;;;4.40;;
10554;SDS011;5326;51.522;7.388;2023-02-01T03:08:09;15.20;;;4.23;;
10554;SDS011;5326;51.522;7.388;2023-02-01T03:13:22;19.07;;;4.17;;
10554;SDS011;5326;51.522;7.388;2023-02-01T03:21:25;17.17;;;4.90;;
10554;SDS011;5326;51.522;7.388;2023-02-01T03:23:57;16.27;;;4.47;;
10554;SDS011;5326;51.522;7.388;2023-02-01T03:26:27;19.40;;;4.37;;
10554;SDS011;5326;51.522;7.388;2023-02-01T03:28:57;20.40;;;4.13;;
10554;SDS011;5326;51.522;7.388;2023-02-01T03:31:29;22.23;;;4.27;;
10554;SDS011;5326;51.522;7.388;2023-02-01T03:33:55;16.93;;;3.60;;
10554;SDS011;5326;51.522;7.388;2023-02-01T03:36:26;15.77;;;3.93;;
10554;SDS011;5326;51.522;7.388;2023-02-01T03:41:51;21.87;;;4.50;;
10554;SDS011;5326;51.522;7.388;2023-02-01T03:47:04;13.23;;;3.87;;
10554;SDS011;5326;51.522;7.388;2023-02-01T03:49:36;16.60;;;4.30;;
10554;SDS011;5326;51.522;7.388;2023-02-01T03:52:08;27.23;;;5.03;;
10554;SDS011;5326;51.522;7.388;2023-02-01T03:54:40;26.47;;;3.93;;
10554;SDS011;5326;51.522;7.388;2023-02-01T03:57:07;18.17;;;3.67;;
10554;SDS011;5326;51.522;7.388;2023-02-01T03:59:41;20.23;;;4.63;;
10554;SDS011;5326;51.522;7.388;2023-02-01T04:02:09;16.20;;;4.00;;
10554;SDS011;5326;51.522;7.388;2023-02-01T04:04:37;18.10;;;3.67;;
10554;SDS011;5326;51.522;7.388;2023-02-01T04:07:05;20.73;;;4.50;;
10554;SDS011;5326;51.522;7.388;2023-02-01T04:09:32;19.03;;;4.07;;
10554;SDS011;5326;51.522;7.388;2023-02-01T04:11:58;30.23;;;4.33;;
10554;SDS011;5326;51.522;7.388;2023-02-01T04:14:25;20.93;;;4.63;;
10554;SDS011;5326;51.522;7.388;2023-02-01T04:16:52;23.23;;;4.30;;
10554;SDS011;5326;51.522;7.388;2023-02-01T04:19:19;19.93;;;4.37;;
10554;SDS011;5326;51.522;7.388;2023-02-01T04:21:45;20.30;;;4.80;;
10554;SDS011;5326;51.522;7.388;2023-02-01T04:24:12;22.07;;;4.47;;
10554;SDS011;5326;51.522;7.388;2023-02-01T04:26:39;21.77;;;4.57;;
10554;SDS011;5326;51.522;7.388;2023-02-01T04:29:05;18.73;;;4.37;;
10554;SDS011;5326;51.522;7.388;2023-02-01T04:31:35;23.73;;;4.77;;
10554;SDS011;5326;51.522;7.388;2023-02-01T04:34:02;27.23;;;4.67;;
10554;SDS011;5326;51.522;7.388;2023-02-01T04:36:29;21.97;;;4.93;;
10554;SDS011;5326;51.522;7.388;2023-02-01T04:38:56;22.00;;;4.73;;
10554;SDS011;5326;51.522;7.388;2023-02-01T04:41:23;17.27;;;4.03;;
10554;SDS011;5326;51.522;7.388;2023-02-01T04:43:50;23.20;;;4.10;;
10554;SDS011;5326;51.522;7.388;2023-02-01T04:46:18;23.77;;;4.77;;
10554;SDS011;5326;51.522;7.388;2023-02-01T04:48:44;14.20;;;4.37;;
10554;SDS011;5326;51.522;7.388;2023-02-01T04:51:11;25.53;;;5.00;;
10554;SDS011;5326;51.522;7.388;2023-02-01T04:53:38;25.50;;;5.03;;
10554;SDS011;5326;51.522;7.388;2023-02-01T04:56:05;22.10;;;4.70;;
10554;SDS011;5326;51.522;7.388;2023-02-01T04:58:32;16.83;;;3.83;;
10554;SDS011;5326;51.522;7.388;2023-02-01T05:00:59;23.57;;;4.80;;
10554;SDS011;5326;51.522;7.388;2023-02-01T05:03:34;27.17;;;4.97;;
10554;SDS011;5326;51.522;7.388;2023-02-01T05:06:01;17.17;;;4.47;;
10554;SDS011;5326;51.522;7.388;2023-02-01T05:08:30;24.07;;;4.50;;
10554;SDS011;5326;51.522;7.388;2023-02-01T05:10:57;20.60;;;4.90;;
10554;SDS011;5326;51.522;7.388;2023-02-01T05:13:25;19.77;;;4.30;;
10554;SDS011;5326;51.522;7.388;2023-02-01T05:16:10;24.53;;;5.03;;
10554;SDS011;5326;51.522;7.388;2023-02-01T05:18:37;22.07;;;4.93;;
10554;SDS011;5326;51.522;7.388;2023-02-01T05:21:03;21.47;;;5.23;;
10554;SDS011;5326;51.522;7.388;2023-02-01T05:23:30;25.17;;;4.90;;
10554;SDS011;5326;51.522;7.388;2023-02-01T05:26:00;25.13;;;6.63;;
10554;SDS011;5326;51.522;7.388;2023-02-01T05:28:27;21.17;;;5.53;;
10554;SDS011;5326;51.522;7.388;2023-02-01T05:30:54;28.43;;;5.10;;
10554;SDS011;5326;51.522;7.388;2023-02-01T05:33:21;21.93;;;5.53;;
10554;SDS011;5326;51.522;7.388;2023-02-01T05:35:48;21.53;;;4.80;;
10554;SDS011;5326;51.522;7.388;2023-02-01T05:38:16;19.97;;;4.07;;
10554;SDS011;5326;51.522;7.388;2023-02-01T05:40:43;22.27;;;4.67;;
10554;SDS011;5326;51.522;7.388;2023-02-01T05:43:16;20.63;;;5.07;;
10554;SDS011;5326;51.522;7.388;2023-02-01T05:45:42;23.73;;;5.63;;
10554;SDS011;5326;51.522;7.388;2023-02-01T05:48:09;23.47;;;5.27;;
10554;SDS011;5326;51.522;7.388;2023-02-01T05:50:36;23.93;;;5.13;;
10554;SDS011;5326;51.522;7.388;2023-02-01T05:53:02;19.60;;;4.73;;
10554;SDS011;5326;51.522;7.388;2023-02-01T05:55:29;23.73;;;4.43;;
10554;SDS011;5326;51.522;7.388;2023-02-01T05:57:56;29.77;;;5.60;;
10554;SDS011;5326;51.522;7.388;2023-02-01T06:00:22;25.10;;;5.13;;
10554;SDS011;5326;51.522;7.388;2023-02-01T06:02:49;22.10;;;5.50;;
10554;SDS011;5326;51.522;7.388;2023-02-01T06:05:16;19.83;;;4.77;;
10554;SDS011;5326;51.522;7.388;2023-02-01T06:07:43;18.93;;;5.80;;
10554;SDS011;5326;51.522;7.388;2023-02-01T06:10:09;25.00;;;5.17;;
10554;SDS011;5326;51.522;7.388;2023-02-01T06:12:37;24.70;;;5.43;;
10554;SDS011;5326;51.522;7.388;2023-02-01T06:15:03;21.37;;;4.77;;
10554;SDS011;5326;51.522;7.388;2023-02-01T06:17:30;26.77;;;5.43;;
10554;SDS011;5326;51.522;7.388;2023-02-01T06:19:57;20.27;;;4.53;;
10554;SDS011;5326;51.522;7.388;2023-02-01T06:22:24;25.07;;;4.90;;
10554;SDS011;5326;51.522;7.388;2023-02-01T06:24:53;24.10;;;4.67;;
10554;SDS011;5326;51.522;7.388;2023-02-01T06:27:22;26.60;;;4.50;;
10554;SDS011;5326;51.522;7.388;2023-02-01T06:29:49;26.33;;;4.70;;
10554;SDS011;5326;51.522;7.388;2023-02-01T06:32:16;23.20;;;4.20;;
10554;SDS011;5326;51.522;7.388;2023-02-01T06:34:43;24.60;;;4.97;;
10554;SDS011;5326;51.522;7.388;2023-02-01T06:37:10;22.27;;;4.93;;
10554;SDS011;5326;51.522;7.388;2023-02-01T06:39:37;16.90;;;4.90;;
10554;SDS011;5326;51.522;7.388;2023-02-01T06:42:04;23.97;;;4.33;;
10554;SDS011;5326;51.522;7.388;2023-02-01T06:44:30;25.17;;;4.87;;
10554;SDS011;5326;51.522;7.388;2023-02-01T06:46:57;22.40;;;4.60;;
10554;SDS011;5326;51.522;7.388;2023-02-01T06:49:24;22.03;;;4.73;;
10554;SDS011;5326;51.522;7.388;2023-02-01T06:51:50;30.40;;;8.47;;
10554;SDS011;5326;51.522;7.388;2023-02-01T06:54:17;20.37;;;4.60;;
10554;SDS011;5326;51.522;7.388;2023-02-01T06:56:44;21.40;;;5.07;;
10554;SDS011;5326;51.522;7.388;2023-02-01T06:59:11;27.80;;;5.43;;
10554;SDS011;5326;51.522;7.388;2023-02-01T07:01:37;28.70;;;4.77;;
10554;SDS011;5326;51.522;7.388;2023-02-01T07:04:04;20.73;;;4.70;;
10554;SDS011;5326;51.522;7.388;2023-02-01T07:06:31;26.70;;;4.90;;
10554;SDS011;5326;51.522;7.388;2023-02-01T07:08:57;19.60;;;4.17;;
10554;SDS011;5326;51.522;7.388;2023-02-01T07:11:24;22.30;;;4.70;;
10554;SDS011;5326;51.522;7.388;2023-02-01T07:13:53;19.63;;;5.20;;
10554;SDS011;5326;51.522;7.388;2023-02-01T07:16:20;25.77;;;4.50;;
10554;SDS011;5326;51.522;7.388;2023-02-01T07:18:47;21.80;;;4.50;;
10554;SDS011;5326;51.522;7.388;2023-02-01T07:21:15;20.17;;;4.50;;
10554;SDS011;5326;51.522;7.388;2023-02-01T07:23:42;25.27;;;5.23;;
10554;SDS011;5326;51.522;7.388;2023-02-01T07:26:09;28.37;;;5.47;;
10554;SDS011;5326;51.522;7.388;2023-02-01T07:28:38;24.43;;;5.23;;
10554;SDS011;5326;51.522;7.388;2023-02-01T07:31:07;24.97;;;4.97;;
10554;SDS011;5326;51.522;7.388;2023-02-01T07:33:37;19.30;;;4.33;;
10554;SDS011;5326;51.522;7.388;2023-02-01T07:36:05;22.77;;;4.60;;
10554;SDS011;5326;51.522;7.388;2023-02-01T07:38:33;28.37;;;5.57;;
10554;SDS011;5326;51.522;7.388;2023-02-01T07:41:00;25.47;;;5.63;;
10554;SDS011;5326;51.522;7.388;2023-02-01T07:43:28;24.53;;;5.33;;
10554;SDS011;5326;51.522;7.388;2023-02-01T07:45:55;19.03;;;4.77;;
10554;SDS011;5326;51.522;7.388;2023-02-01T07:48:22;26.23;;;5.03;;
10554;SDS011;5326;51.522;7.388;2023-02-01T07:53:26;26.10;;;5.17;;
10554;SDS011;5326;51.522;7.388;2023-02-01T07:55:56;21.80;;;4.73;;
10554;SDS011;5326;51.522;7.388;2023-02-01T07:58:24;24.70;;;5.70;;
10554;SDS011;5326;51.522;7.388;2023-02-01T08:00:52;29.03;;;5.83;;
10554;SDS011;5326;51.522;7.388;2023-02-01T08:03:37;28.47;;;5.60;;
10554;SDS011;5326;51.522;7.388;2023-02-01T08:06:04;27.37;;;6.20;;
10554;SDS011;5326;51.522;7.388;2023-02-01T08:08:32;27.57;;;5.30;;
10554;SDS011;5326;51.522;7.388;2023-02-01T08:11:03;26.23;;;6.17;;
10554;SDS011;5326;51.522;7.388;2023-02-01T08:13:30;29.03;;;6.03;;
10554;SDS011;5326;51.522;7.388;2023-02-01T08:15:58;29.70;;;5.93;;
10554;SDS011;5326;51.522;7.388;2023-02-01T08:18:25;27.77;;;6.07;;
10554;SDS011;5326;51.522;7.388;2023-02-01T08:20:52;24.97;;;6.33;;
10554;SDS011;5326;51.522;7.388;2023-02-01T08:23:19;30.63;;;6.03;;
10554;SDS011;5326;51.522;7.388;2023-02-01T08:25:47;26.47;;;5.87;;
10554;SDS011;5326;51.522;7.388;2023-02-01T08:28:13;25.20;;;6.63;;
10554;SDS011;5326;51.522;7.388;2023-02-01T08:30:40;23.53;;;6.00;;
10554;SDS011;5326;51.522;7.388;2023-02-01T08:33:10;21.97;;;6.57;;
10554;SDS011;5326;51.522;7.388;2023-02-01T08:35:38;22.80;;;6.20;;
10554;SDS011;5326;51.522;7.388;2023-02-01T08:38:09;22.43;;;6.13;;
10554;SDS011;5326;51.522;7.388;2023-02-01T08:40:36;18.27;;;5.57;;
10554;SDS011;5326;51.522;7.388;2023-02-01T08:43:02;33.43;;;6.03;;
10554;SDS011;5326;51.522;7.388;2023-02-01T08:45:29;26.40;;;6.00;;
10554;SDS011;5326;51.522;7.388;2023-02-01T08:47:56;22.43;;;5.77;;
10554;SDS011;5326;51.522;7.388;2023-02-01T08:50:23;23.27;;;6.13;;
10554;SDS011;5326;51.522;7.388;2023-02-01T08:52:51;19.63;;;5.83;;
10554;SDS011;5326;51.522;7.388;2023-02-01T08:55:18;27.80;;;6.37;;
10554;SDS011;5326;51.522;7.388;2023-02-01T08:57:45;21.97;;;6.10;;
10554;SDS011;5326;51.522;7.388;2023-02-01T09:00:14;23.53;;;5.77;;
10554;SDS011;5326;51.522;7.388;2023-02-01T09:02:42;29.33;;;6.07;;
10554;SDS011;5326;51.522;7.388;2023-02-01T09:05:09;20.87;;;5.63;;
10554;SDS011;5326;51.522;7.388;2023-02-01T09:07:37;30.30;;;7.37;;
10554;SDS011;5326;51.522;7.388;2023-02-01T09:10:03;34.27;;;6.37;;
10554;SDS011;5326;51.522;7.388;2023-02-01T09:12:31;24.17;;;6.67;;
10554;SDS011;5326;51.522;7.388;2023-02-01T09:14:59;33.63;;;11.10;;
10554;SDS011;5326;51.522;7.388;2023-02-01T09:17:26;22.13;;;5.90;;
10554;SDS011;5326;51.522;7.388;2023-02-01T09:19:53;27.03;;;6.07;;
10554;SDS011;5326;51.522;7.388;2023-02-01T09:22:20;23.53;;;5.90;;
10554;SDS011;5326;51.522;7.388;2023-02-01T09:24:47;21.83;;;5.90;;
10554;SDS011;5326;51.522;7.388;2023-02-01T09:27:14;25.57;;;6.03;;
10554;SDS011;5326;51.522;7.388;2023-02-01T09:29:41;30.37;;;6.77;;
10554;SDS011;5326;51.522;7.388;2023-02-01T09:32:07;31.53;;;12.17;;
10554;SDS011;5326;51.522;7.388;2023-02-01T09:34:35;22.63;;;5.40;;
10554;SDS011;5326;51.522;7.388;2023-02-01T09:37:02;25.67;;;6.40;;
10554;SDS011;5326;51.522;7.388;2023-02-01T09:39:28;20.07;;;5.97;;
10554;SDS011;5326;51.522;7.388;2023-02-01T09:42:20;27.50;;;6.20;;
10554;SDS011;5326;51.522;7.388;2023-02-01T09:47:35;24.60;;;5.57;;
10554;SDS011;5326;51.522;7.388;2023-02-01T09:52:52;26.03;;;5.43;;
10554;SDS011;5326;51.522;7.388;2023-02-01T09:57:59;21.17;;;5.27;;
10554;SDS011;5326;51.522;7.388;2023-02-01T10:00:52;21.57;;;5.53;;
10554;SDS011;5326;51.522;7.388;2023-02-01T10:03:32;21.30;;;5.53;;
10554;SDS011;5326;51.522;7.388;2023-02-01T10:06:20;21.53;;;5.83;;
10554;SDS011;5326;51.522;7.388;2023-02-01T10:16:56;30.50;;;5.47;;
10554;SDS011;5326;51.522;7.388;2023-02-01T10:27:57;20.37;;;5.40;;
10554;SDS011;5326;51.522;7.388;2023-02-01T10:30:28;20.47;;;5.80;;
10554;SDS011;5326;51.522;7.388;2023-02-01T10:35:52;21.50;;;5.17;;
10554;SDS011;5326;51.522;7.388;2023-02-01T10:38:26;23.47;;;5.37;;
10554;SDS011;5326;51.522;7.388;2023-02-01T10:40:55;19.43;;;4.63;;
10554;SDS011;5326;51.522;7.388;2023-02-01T10:43:36;27.83;;;5.23;;
10554;SDS011;5326;51.522;7.388;2023-02-01T10:46:02;24.37;;;5.37;;
10554;SDS011;5326;51.522;7.388;2023-02-01T10:48:29;19.13;;;5.07;;
10554;SDS011;5326;51.522;7.388;2023-02-01T10:51:02;23.83;;;5.47;;
10554;SDS011;5326;51.522;7.388;2023-02-01T10:53:34;18.90;;;5.30;;
10554;SDS011;5326;51.522;7.388;2023-02-01T10:56:08;28.77;;;5.87;;
10554;SDS011;5326;51.522;7.388;2023-02-01T10:58:43;29.40;;;5.93;;
10554;SDS011;5326;51.522;7.388;2023-02-01T11:01:57;21.77;;;5.00;;
10554;SDS011;5326;51.522;7.388;2023-02-01T11:04:02;23.77;;;5.33;;
10554;SDS011;5326;51.522;7.388;2023-02-01T11:06:32;24.90;;;5.07;;
10554;SDS011;5326;51.522;7.388;2023-02-01T11:09:08;15.60;;;4.17;;
10554;SDS011;5326;51.522;7.388;2023-02-01T11:17:00;18.30;;;4.67;;
10554;SDS011;5326;51.522;7.388;2023-02-01T11:19:29;22.60;;;5.40;;
10554;SDS011;5326;51.522;7.388;2023-02-01T11:21:56;20.53;;;5.03;;
10554;SDS011;5326;51.522;7.388;2023-02-01T11:24:26;22.33;;;5.00;;
10554;SDS011;5326;51.522;7.388;2023-02-01T11:26:56;22.03;;;4.93;;
10554;SDS011;5326;51.522;7.388;2023-02-01T11:29:23;31.30;;;6.67;;
10554;SDS011;5326;51.522;7.388;2023-02-01T11:31:56;18.57;;;4.73;;
10554;SDS011;5326;51.522;7.388;2023-02-01T11:34:30;22.43;;;5.97;;
10554;SDS011;5326;51.522;7.388;2023-02-01T11:37:02;21.20;;;5.27;;
10554;SDS011;5326;51.522;7.388;2023-02-01T11:39:30;21.13;;;4.73;;
10554;SDS011;5326;51.522;7.388;2023-02-01T11:42:06;20.53;;;5.10;;
10554;SDS011;5326;51.522;7.388;2023-02-01T11:44:39;20.07;;;5.33;;
10554;SDS011;5326;51.522;7.388;2023-02-01T11:49:59;26.07;;;6.50;;
10554;SDS011;5326;51.522;7.388;2023-02-01T12:01:03;19.13;;;4.90;;
10554;SDS011;5326;51.522;7.388;2023-02-01T12:06:25;22.07;;;5.10;;
10554;SDS011;5326;51.522;7.388;2023-02-01T12:43:59;18.13;;;4.73;;
10554;SDS011;5326;51.522;7.388;2023-02-01T12:46:30;23.17;;;5.17;;
10554;SDS011;5326;51.522;7.388;2023-02-01T12:51:35;20.17;;;4.50;;
10554;SDS011;5326;51.522;7.388;2023-02-01T12:54:06;20.03;;;5.13;;
10554;SDS011;5326;51.522;7.388;2023-02-01T12:59:20;19.90;;;4.97;;
10554;SDS011;5326;51.522;7.388;2023-02-01T13:06:59;18.40;;;4.43;;
10554;SDS011;5326;51.522;7.388;2023-02-01T13:09:43;28.10;;;5.40;;
10554;SDS011;5326;51.522;7.388;2023-02-01T13:12:19;15.07;;;5.03;;
10554;SDS011;5326;51.522;7.388;2023-02-01T13:14:56;20.73;;;4.87;;
10554;SDS011;5326;51.522;7.388;2023-02-01T13:17:27;26.13;;;5.23;;
10554;SDS011;5326;51.522;7.388;2023-02-01T13:19:59;23.40;;;4.47;;
10554;SDS011;5326;51.522;7.388;2023-02-01T13:22:37;19.67;;;4.50;;
10554;SDS011;5326;51.522;7.388;2023-02-01T13:25:30;16.23;;;4.70;;
10554;SDS011;5326;51.522;7.388;2023-02-01T13:28:09;22.63;;;4.87;;
10554;SDS011;5326;51.522;7.388;2023-02-01T13:44:24;19.07;;;3.97;;
10554;SDS011;5326;51.522;7.388;2023-02-01T13:46:55;17.83;;;4.20;;
10554;SDS011;5326;51.522;7.388;2023-02-01T13:49:36;17.50;;;4.20;;
10554;SDS011;5326;51.522;7.388;2023-02-01T13:52:04;20.50;;;5.00;;
10554;SDS011;5326;51.522;7.388;2023-02-01T13:54:36;18.97;;;4.40;;
10554;SDS011;5326;51.522;7.388;2023-02-01T13:57:04;26.13;;;5.00;;
10554;SDS011;5326;51.522;7.388;2023-02-01T14:05:11;25.47;;;4.80;;
10554;SDS011;5326;51.522;7.388;2023-02-01T14:08:24;23.63;;;4.93;;
10554;SDS011;5326;51.522;7.388;2023-02-01T14:16:41;19.57;;;4.43;;
10554;SDS011;5326;51.522;7.388;2023-02-01T14:19:29;18.40;;;4.00;;
10554;SDS011;5326;51.522;7.388;2023-02-01T14:22:01;17.70;;;4.03;;
10554;SDS011;5326;51.522;7.388;2023-02-01T14:24:51;21.50;;;4.83;;
10554;SDS011;5326;51.522;7.388;2023-02-01T14:27:21;19.47;;;4.73;;
10554;SDS011;5326;51.522;7.388;2023-02-01T14:29:50;19.00;;;4.00;;
10554;SDS011;5326;51.522;7.388;2023-02-01T14:32:24;14.33;;;3.90;;
10554;SDS011;5326;51.522;7.388;2023-02-01T14:34:53;24.70;;;4.63;;
10554;SDS011;5326;51.522;7.388;2023-02-01T14:37:24;25.90;;;5.07;;
10554;SDS011;5326;51.522;7.388;2023-02-01T14:39:58;24.73;;;5.23;;
10554;SDS011;5326;51.522;7.388;2023-02-01T14:47:49;26.13;;;4.93;;
10554;SDS011;5326;51.522;7.388;2023-02-01T15:01:31;14.50;;;3.90;;
10554;SDS011;5326;51.522;7.388;2023-02-01T15:04:10;21.13;;;3.97;;
10554;SDS011;5326;51.522;7.388;2023-02-01T15:06:39;18.50;;;3.50;;
10554;SDS011;5326;51.522;7.388;2023-02-01T15:14:26;21.00;;;3.77;;
10554;SDS011;5326;51.522;7.388;2023-02-01T15:16:54;20.80;;;4.93;;
10554;SDS011;5326;51.522;7.388;2023-02-01T15:19:21;18.70;;;4.60;;
10554;SDS011;5326;51.522;7.388;2023-02-01T15:21:51;21.77;;;4.60;;
10554;SDS011;5326;51.522;7.388;2023-02-01T15:24:23;23.27;;;4.20;;
10554;SDS011;5326;51.522;7.388;2023-02-01T15:26:55;18.23;;;4.67;;
10554;SDS011;5326;51.522;7.388;2023-02-01T15:29:23;20.17;;;4.17;;
10554;SDS011;5326;51.522;7.388;2023-02-01T15:31:58;13.63;;;4.37;;
10554;SDS011;5326;51.522;7.388;2023-02-01T15:34:43;20.43;;;3.77;;
10554;SDS011;5326;51.522;7.388;2023-02-01T15:37:15;17.97;;;3.97;;
10554;SDS011;5326;51.522;7.388;2023-02-01T15:42:49;22.00;;;4.20;;
10554;SDS011;5326;51.522;7.388;2023-02-01T15:45:20;22.80;;;4.10;;
10554;SDS011;5326;51.522;7.388;2023-02-01T15:47:49;20.07;;;4.00;;
10554;SDS011;5326;51.522;7.388;2023-02-01T15:50:18;16.87;;;4.00;;
10554;SDS011;5326;51.522;7.388;2023-02-01T15:52:48;19.03;;;5.90;;
10554;SDS011;5326;51.522;7.388;2023-02-01T15:58:08;17.27;;;4.13;;
10554;SDS011;5326;51.522;7.388;2023-02-01T16:00:43;15.80;;;3.27;;
10554;SDS011;5326;51.522;7.388;2023-02-01T16:05:55;21.63;;;4.60;;
10554;SDS011;5326;51.522;7.388;2023-02-01T16:08:24;21.33;;;4.20;;
10554;SDS011;5326;51.522;7.388;2023-02-01T16:10:53;19.43;;;4.30;;
10554;SDS011;5326;51.522;7.388;2023-02-01T16:13:25;21.50;;;3.97;;
10554;SDS011;5326;51.522;7.388;2023-02-01T16:15:52;21.13;;;4.63;;
10554;SDS011;5326;51.522;7.388;2023-02-01T16:18:19;20.17;;;4.77;;
10554;SDS011;5326;51.522;7.388;2023-02-01T16:20:46;23.23;;;4.23;;
10554;SDS011;5326;51.522;7.388;2023-02-01T16:23:13;25.23;;;4.97;;
10554;SDS011;5326;51.522;7.388;2023-02-01T16:25:40;16.40;;;4.17;;
10554;SDS011;5326;51.522;7.388;2023-02-01T16:28:07;18.77;;;3.97;;
10554;SDS011;5326;51.522;7.388;2023-02-01T16:30:34;22.80;;;4.60;;
10554;SDS011;5326;51.522;7.388;2023-02-01T16:33:01;24.70;;;6.40;;
10554;SDS011;5326;51.522;7.388;2023-02-01T16:35:32;22.77;;;4.87;;
10554;SDS011;5326;51.522;7.388;2023-02-01T16:38:11;16.87;;;4.37;;
10554;SDS011;5326;51.522;7.388;2023-02-01T16:40:39;19.87;;;4.43;;
10554;SDS011;5326;51.522;7.388;2023-02-01T16:43:25;20.23;;;4.73;;
10554;SDS011;5326;51.522;7.388;2023-02-01T16:45:53;21.57;;;5.53;;
10554;SDS011;5326;51.522;7.388;2023-02-01T16:48:21;21.00;;;5.63;;
10554;SDS011;5326;51.522;7.388;2023-02-01T16:50:55;24.63;;;4.97;;
10554;SDS011;5326;51.522;7.388;2023-02-01T16:53:23;21.50;;;5.33;;
10554;SDS011;5326;51.522;7.388;2023-02-01T16:55:51;18.90;;;4.70;;
10554;SDS011;5326;51.522;7.388;2023-02-01T16:58:19;19.93;;;5.00;;
10554;SDS011;5326;51.522;7.388;2023-02-01T17:00:46;20.77;;;4.93;;
10554;SDS011;5326;51.522;7.388;2023-02-01T17:03:14;22.07;;;7.27;;
10554;SDS011;5326;51.522;7.388;2023-02-01T17:05:46;19.23;;;4.63;;
10554;SDS011;5326;51.522;7.388;2023-02-01T17:08:17;17.50;;;4.90;;
10554;SDS011;5326;51.522;7.388;2023-02-01T17:10:45;15.73;;;4.10;;
10554;SDS011;5326;51.522;7.388;2023-02-01T17:13:13;9.73;;;3.23;;
10554;SDS011;5326;51.522;7.388;2023-02-01T17:15:47;10.40;;;2.67;;
10554;SDS011;5326;51.522;7.388;2023-02-01T17:18:16;7.40;;;2.40;;
10554;SDS011;5326;51.522;7.388;2023-02-01T17:20:44;7.93;;;2.30;;
10554;SDS011;5326;51.522;7.388;2023-02-01T17:23:14;7.33;;;2.60;;
10554;SDS011;5326;51.522;7.388;2023-02-01T17:25:41;6.83;;;2.50;;
10554;SDS011;5326;51.522;7.388;2023-02-01T17:28:08;7.33;;;2.97;;
10554;SDS011;5326;51.522;7.388;2023-02-01T17:30:36;11.83;;;3.17;;
10554;SDS011;5326;51.522;7.388;2023-02-01T17:33:03;7.37;;;2.40;;
10554;SDS011;5326;51.522;7.388;2023-02-01T17:35:47;9.07;;;2.67;;
10554;SDS011;5326;51.522;7.388;2023-02-01T17:38:13;9.50;;;2.73;;
10554;SDS011;5326;51.522;7.388;2023-02-01T17:40:40;7.43;;;2.63;;
10554;SDS011;5326;51.522;7.388;2023-02-01T17:43:09;13.37;;;2.93;;
10554;SDS011;5326;51.522;7.388;2023-02-01T17:45:51;7.33;;;2.70;;
10554;SDS011;5326;51.522;7.388;2023-02-01T17:48:20;11.63;;;3.50;;
10554;SDS011;5326;51.522;7.388;2023-02-01T17:50:48;10.53;;;3.83;;
10554;SDS011;5326;51.522;7.388;2023-02-01T17:53:20;9.63;;;3.83;;
10554;SDS011;5326;51.522;7.388;2023-02-01T17:55:50;13.53;;;4.80;;
10554;SDS011;5326;51.522;7.388;2023-02-01T17:58:17;19.43;;;6.53;;
10554;SDS011;5326;51.522;7.388;2023-02-01T18:00:44;13.80;;;5.43;;
10554;SDS011;5326;51.522;7.388;2023-02-01T18:03:22;15.83;;;5.23;;
10554;SDS011;5326;51.522;7.388;2023-02-01T18:05:52;17.43;;;4.37;;
10554;SDS011;5326;51.522;7.388;2023-02-01T18:08:21;14.63;;;4.70;;
10554;SDS011;5326;51.522;7.388;2023-02-01T18:10:52;12.60;;;5.23;;
10554;SDS011;5326;51.522;7.388;2023-02-01T18:13:27;16.17;;;4.80;;
10554;SDS011;5326;51.522;7.388;2023-02-01T18:15:54;17.00;;;5.37;;
10554;SDS011;5326;51.522;7.388;2023-02-01T18:18:21;13.63;;;4.93;;
10554;SDS011;5326;51.522;7.388;2023-02-01T18:20:47;14.87;;;4.37;;
10554;SDS011;5326;51.522;7.388;2023-02-01T18:23:18;16.40;;;4.73;;